EGQL TAF 231344Z 2315/2324 29010KT 9999 FEW020 PROB30 TEMPO 2315/2320 7000 SHRA SCT020 PROB30 TEMPO 2318/2324 30015G25KT